Wetterdaten: Woche 23.04.18 - 29.04.18 (KW17)
Datum Zeit Temp. Aussen Temp. o. S. +5cm Feuchte Auss BlattFeu 1 Luftdruck Regen Sonnenschein Regendauer Solar Windben Empfang
23.04.2018 00:00 16,5 C 14,5 C 12,5 C 84 % 1 lf 1010,0 hPa 0,0 l/m 0,00 h 0,00 h 0 W/m 1,2 km/h (1 Bft) 88,80 %
23.04.2018 01:00 15,8 C 14,4 C 13,2 C 88 % 9 lf 1010,5 hPa 0,8 l/m 0,00 h 0,43 h 0 W/m 9,8 km/h (2 Bft) 96,34 %
23.04.2018 02:00 15,9 C 14,4 C 13,3 C 91 % 15 lf 1010,7 hPa 0,0 l/m 0,00 h 0,10 h 0 W/m 10,5 km/h (2 Bft) 95,09 %
23.04.2018 03:00 15,7 C 14,1 C 13,0 C 91 % 15 lf 1010,7 hPa 0,0 l/m 0,00 h 0,00 h 0 W/m 6,0 km/h (2 Bft) 96,94 %
23.04.2018 04:00 15,1 C 13,9 C 12,8 C 93 % 15 lf 1011,1 hPa 0,0 l/m 0,00 h 0,10 h 0 W/m 11,5 km/h (2 Bft) 96,73 %
23.04.2018 05:00 15,0 C 13,9 C 12,8 C 92 % 14 lf 1011,5 hPa 0,0 l/m 0,00 h 0,00 h 0 W/m 12,7 km/h (3 Bft) 95,79 %
23.04.2018 06:00 14,4 C 13,6 C 11,9 C 91 % 1 lf 1011,9 hPa 0,0 l/m 0,00 h 0,00 h 15 W/m 11,1 km/h (2 Bft) 96,48 %
23.04.2018 07:00 13,8 C 13,9 C 11,7 C 87 % 0 lf 1012,5 hPa 0,0 l/m 0,03 h 0,00 h 53 W/m 11,8 km/h (2 Bft) 95,62 %
23.04.2018 08:00 13,9 C 14,8 C 11,8 C 83 % 0 lf 1013,3 hPa 0,0 l/m 0,17 h 0,00 h 123 W/m 17,4 km/h (3 Bft) 97,28 %
23.04.2018 09:00 14,3 C 18,7 C 14,4 C 80 % 0 lf 1013,7 hPa 0,0 l/m 0,73 h 0,00 h 335 W/m 19,7 km/h (3 Bft) 96,26 %
23.04.2018 10:00 16,4 C 25,0 C 21,3 C 73 % 0 lf 1014,0 hPa 0,0 l/m 1,00 h 0,00 h 605 W/m 20,6 km/h (4 Bft) 94,59 %
23.04.2018 11:00 17,9 C 25,1 C 22,1 C 67 % 0 lf 1014,4 hPa 0,0 l/m 1,00 h 0,00 h 755 W/m 27,7 km/h (4 Bft) 97,65 %
23.04.2018 12:00 18,8 C 24,9 C 22,4 C 63 % 0 lf 1014,7 hPa 0,0 l/m 0,63 h 0,00 h 524 W/m 26,0 km/h (4 Bft) 96,18 %
23.04.2018 13:00 19,8 C 26,9 C 20,3 C 58 % 0 lf 1014,8 hPa 0,0 l/m 0,97 h 0,00 h 803 W/m 26,1 km/h (4 Bft) 96,06 %
23.04.2018 14:00 20,2 C 26,8 C 20,6 C 56 % 0 lf 1014,7 hPa 0,0 l/m 0,93 h 0,00 h 778 W/m 25,4 km/h (4 Bft) 96,58 %
23.04.2018 15:00 20,6 C 25,4 C 24,3 C 53 % 0 lf 1014,6 hPa 0,0 l/m 0,90 h 0,00 h 683 W/m 26,0 km/h (4 Bft) 95,40 %
23.04.2018 16:00 20,0 C 21,9 C 21,3 C 54 % 0 lf 1014,5 hPa 0,0 l/m 0,83 h 0,00 h 416 W/m 25,4 km/h (4 Bft) 97,32 %
23.04.2018 17:00 19,7 C 20,8 C 19,4 C 55 % 0 lf 1014,6 hPa 0,0 l/m 0,83 h 0,00 h 421 W/m 21,5 km/h (4 Bft) 96,05 %
23.04.2018 18:00 19,4 C 19,4 C 18,0 C 55 % 0 lf 1014,8 hPa 0,0 l/m 0,73 h 0,00 h 239 W/m 19,1 km/h (3 Bft) 95,60 %
23.04.2018 19:00 18,0 C 17,0 C 15,7 C 58 % 0 lf 1014,9 hPa 0,0 l/m 0,23 h 0,00 h 79 W/m 13,5 km/h (3 Bft) 97,51 %
23.04.2018 20:00 16,3 C 14,4 C 12,9 C 63 % 0 lf 1015,0 hPa 0,0 l/m 0,00 h 0,00 h 16 W/m 7,2 km/h (2 Bft) 96,31 %
23.04.2018 21:00 14,8 C 13,0 C 11,4 C 67 % 0 lf 1015,4 hPa 0,0 l/m 0,00 h 0,00 h 0 W/m 6,7 km/h (2 Bft) 95,16 %
23.04.2018 22:00 13,7 C 12,3 C 10,6 C 71 % 0 lf 1015,6 hPa 0,0 l/m 0,00 h 0,00 h 0 W/m 6,3 km/h (2 Bft) 98,50 %
23.04.2018 23:00 12,8 C 11,8 C 10,5 C 74 % 0 lf 1015,9 hPa 0,0 l/m 0,00 h 0,00 h 0 W/m 11,6 km/h (2 Bft) 93,89 %
24.04.2018 00:00 12,1 C 10,8 C 9,7 C 77 % 0 lf 1016,2 hPa 0,0 l/m 0,00 h 0,00 h 0 W/m 10,1 km/h (2 Bft) 98,05 %
24.04.2018 01:00 11,0 C 9,4 C 8,3 C 80 % 0 lf 1016,3 hPa 0,0 l/m 0,00 h 0,00 h 0 W/m 8,8 km/h (2 Bft) 95,88 %
24.04.2018 02:00 10,2 C 9,5 C 8,5 C 80 % 0 lf 1015,9 hPa 0,0 l/m 0,00 h 0,00 h 0 W/m 18,7 km/h (3 Bft) 95,80 %
24.04.2018 03:00 9,6 C 8,8 C 7,8 C 81 % 0 lf 1015,9 hPa 0,0 l/m 0,00 h 0,00 h 0 W/m 15,4 km/h (3 Bft) 98,12 %
24.04.2018 04:00 9,1 C 8,3 C 7,4 C 83 % 0 lf 1015,6 hPa 0,0 l/m 0,00 h 0,00 h 0 W/m 17,1 km/h (3 Bft) 96,10 %
24.04.2018 05:00 8,8 C 8,3 C 7,2 C 85 % 0 lf 1015,4 hPa 0,0 l/m 0,00 h 0,00 h 0 W/m 15,7 km/h (3 Bft) 94,86 %
24.04.2018 06:00 8,7 C 8,4 C 7,5 C 85 % 0 lf 1015,3 hPa 0,0 l/m 0,00 h 0,00 h 14 W/m 17,7 km/h (3 Bft) 98,93 %
24.04.2018 07:00 9,2 C 9,4 C 8,7 C 84 % 0 lf 1015,7 hPa 0,0 l/m 0,00 h 0,00 h 56 W/m 21,1 km/h (4 Bft) 95,24 %
24.04.2018 08:00 10,0 C 10,7 C 10,1 C 83 % 0 lf 1015,8 hPa 0,0 l/m 0,03 h 0,00 h 110 W/m 22,0 km/h (4 Bft) 95,23 %
24.04.2018 09:00 10,7 C 11,2 C 10,6 C 81 % 2 lf 1016,1 hPa 0,0 l/m 0,00 h 0,10 h 107 W/m 24,9 km/h (4 Bft) 97,30 %
24.04.2018 10:00 10,4 C 10,7 C 9,7 C 87 % 11 lf 1016,4 hPa 0,0 l/m 0,00 h 0,37 h 139 W/m 20,7 km/h (4 Bft) 97,79 %
24.04.2018 11:00 10,9 C 12,2 C 11,6 C 90 % 6 lf 1016,5 hPa 0,0 l/m 0,00 h 0,00 h 218 W/m 21,6 km/h (4 Bft) 94,04 %
24.04.2018 12:00 11,7 C 12,6 C 12,4 C 87 % 0 lf 1016,4 hPa 0,0 l/m 0,00 h 0,00 h 163 W/m 25,4 km/h (4 Bft) 97,48 %
24.04.2018 13:00 12,7 C 14,0 C 13,7 C 84 % 0 lf 1016,2 hPa 0,0 l/m 0,00 h 0,00 h 201 W/m 23,4 km/h (4 Bft) 97,28 %
24.04.2018 14:00 13,9 C 16,1 C 15,9 C 80 % 0 lf 1015,9 hPa 0,0 l/m 0,37 h 0,00 h 338 W/m 23,8 km/h (4 Bft) 95,51 %
24.04.2018 15:00 15,5 C 18,6 C 18,3 C 74 % 0 lf 1015,3 hPa 0,0 l/m 1,00 h 0,00 h 456 W/m 22,7 km/h (4 Bft) 94,98 %
24.04.2018 16:00 16,3 C 18,4 C 18,3 C 70 % 0 lf 1014,6 hPa 0,0 l/m 1,00 h 0,00 h 408 W/m 22,6 km/h (4 Bft) 98,51 %
24.04.2018 17:00 16,9 C 18,1 C 17,4 C 68 % 0 lf 1013,7 hPa 0,0 l/m 0,93 h 0,00 h 360 W/m 20,7 km/h (4 Bft) 95,41 %
24.04.2018 18:00 16,7 C 17,1 C 16,4 C 69 % 0 lf 1013,3 hPa 0,0 l/m 0,73 h 0,00 h 197 W/m 17,9 km/h (3 Bft) 95,28 %
24.04.2018 19:00 16,1 C 15,9 C 15,1 C 73 % 0 lf 1012,5 hPa 0,0 l/m 0,23 h 0,00 h 76 W/m 11,7 km/h (2 Bft) 98,78 %
24.04.2018 20:00 15,4 C 14,6 C 13,6 C 76 % 0 lf 1012,1 hPa 0,0 l/m 0,00 h 0,00 h 14 W/m 8,4 km/h (2 Bft) 95,16 %
24.04.2018 21:00 14,8 C 14,1 C 12,9 C 77 % 0 lf 1011,9 hPa 0,0 l/m 0,00 h 0,00 h 0 W/m 7,0 km/h (2 Bft) 95,87 %
24.04.2018 22:00 14,6 C 14,3 C 12,9 C 80 % 0 lf 1011,2 hPa 0,0 l/m 0,00 h 0,00 h 0 W/m 8,7 km/h (2 Bft) 97,51 %
24.04.2018 23:00 14,6 C 14,0 C 12,8 C 82 % 0 lf 1010,4 hPa 0,0 l/m 0,00 h 0,00 h 0 W/m 8,9 km/h (2 Bft) 96,90 %
25.04.2018 00:00 14,4 C 13,9 C 12,8 C 84 % 0 lf 1009,4 hPa 0,0 l/m 0,00 h 0,00 h 0 W/m 5,1 km/h (1 Bft) 93,84 %
25.04.2018 01:00 14,6 C 14,5 C 13,2 C 84 % 0 lf 1008,4 hPa 0,0 l/m 0,00 h 0,00 h 0 W/m 13,6 km/h (3 Bft) 97,32 %
25.04.2018 02:00 15,3 C 15,3 C 13,9 C 77 % 0 lf 1007,6 hPa 0,0 l/m 0,00 h 0,00 h 0 W/m 20,6 km/h (4 Bft) 97,44 %
25.04.2018 03:00 15,6 C 15,1 C 13,9 C 74 % 0 lf 1007,3 hPa 0,0 l/m 0,00 h 0,00 h 0 W/m 24,5 km/h (4 Bft) 95,73 %
25.04.2018 04:00 15,2 C 14,6 C 13,5 C 77 % 0 lf 1007,1 hPa 0,0 l/m 0,00 h 0,00 h 0 W/m 22,0 km/h (4 Bft) 95,59 %
25.04.2018 05:00 14,8 C 14,4 C 13,3 C 80 % 0 lf 1007,0 hPa 0,0 l/m 0,00 h 0,00 h 0 W/m 31,8 km/h (5 Bft) 99,02 %
25.04.2018 06:00 14,4 C 13,9 C 12,7 C 81 % 2 lf 1007,1 hPa 0,0 l/m 0,00 h 0,13 h 9 W/m 32,8 km/h (5 Bft) 95,30 %
25.04.2018 07:00 13,3 C 12,1 C 10,9 C 88 % 15 lf 1007,5 hPa 0,2 l/m 0,00 h 0,87 h 23 W/m 24,6 km/h (4 Bft) 95,59 %
25.04.2018 08:00 12,2 C 11,3 C 10,7 C 93 % 15 lf 1008,2 hPa 0,2 l/m 0,00 h 0,33 h 65 W/m 26,3 km/h (4 Bft) 97,97 %
25.04.2018 09:00 12,6 C 14,4 C 12,3 C 93 % 9 lf 1008,6 hPa 0,0 l/m 0,77 h 0,00 h 254 W/m 26,1 km/h (4 Bft) 96,37 %
25.04.2018 10:00 13,4 C 16,6 C 13,2 C 87 % 8 lf 1009,3 hPa 0,2 l/m 0,33 h 0,13 h 336 W/m 26,8 km/h (4 Bft) 95,14 %
25.04.2018 11:00 14,2 C 18,8 C 14,7 C 81 % 1 lf 1010,1 hPa 0,0 l/m 0,40 h 0,00 h 445 W/m 28,2 km/h (4 Bft) 98,57 %
25.04.2018 12:00 15,6 C 21,5 C 18,8 C 70 % 0 lf 1010,4 hPa 0,2 l/m 0,75 h 0,00 h 675 W/m 30,3 km/h (5 Bft) 94,42 %
25.04.2018 13:00 16,1 C 20,3 C 17,9 C 68 % 0 lf 1010,6 hPa 0,0 l/m 0,60 h 0,00 h 568 W/m 31,8 km/h (5 Bft) 96,08 %
25.04.2018 14:00 16,6 C 21,4 C 18,5 C 64 % 0 lf 1010,9 hPa 0,0 l/m 0,73 h 0,00 h 631 W/m 31,8 km/h (5 Bft) 98,29 %
25.04.2018 15:00 16,6 C 18,8 C 18,5 C 59 % 0 lf 1011,0 hPa 0,0 l/m 0,37 h 0,00 h 378 W/m 28,3 km/h (4 Bft) 96,51 %
25.04.2018 16:00 15,7 C 16,9 C 17,0 C 60 % 0 lf 1011,1 hPa 0,0 l/m 0,43 h 0,00 h 344 W/m 27,3 km/h (4 Bft) 95,23 %
25.04.2018 17:00 15,8 C 16,3 C 15,9 C 60 % 0 lf 1010,9 hPa 0,0 l/m 0,23 h 0,00 h 213 W/m 26,1 km/h (4 Bft) 95,87 %
25.04.2018 18:00 14,8 C 15,2 C 14,6 C 66 % 0 lf 1010,8 hPa 0,0 l/m 0,23 h 0,00 h 146 W/m 19,8 km/h (4 Bft) 98,64 %
25.04.2018 19:00 14,4 C 14,0 C 13,1 C 66 % 0 lf 1010,7 hPa 0,0 l/m 0,00 h 0,00 h 58 W/m 13,6 km/h (3 Bft) 93,45 %
25.04.2018 20:00 13,4 C 12,7 C 11,8 C 69 % 0 lf 1010,8 hPa 0,0 l/m 0,30 h 0,00 h 24 W/m 12,1 km/h (2 Bft) 96,91 %
25.04.2018 21:00 12,6 C 11,6 C 10,4 C 72 % 2 lf 1011,4 hPa 0,0 l/m 0,00 h 0,20 h 0 W/m 9,2 km/h (2 Bft) 97,44 %
25.04.2018 22:00 11,8 C 10,7 C 9,5 C 76 % 0 lf 1012,1 hPa 0,0 l/m 0,00 h 0,00 h 0 W/m 12,5 km/h (3 Bft) 95,03 %
25.04.2018 23:00 10,7 C 9,9 C 8,7 C 73 % 0 lf 1012,3 hPa 0,0 l/m 0,00 h 0,00 h 0 W/m 18,2 km/h (3 Bft) 95,10 %
26.04.2018 00:00 10,0 C 9,3 C 8,0 C 72 % 0 lf 1012,3 hPa 0,0 l/m 0,00 h 0,00 h 0 W/m 19,3 km/h (3 Bft) 99,22 %
26.04.2018 01:00 9,4 C 8,7 C 7,6 C 73 % 0 lf 1012,3 hPa 0,0 l/m 0,00 h 0,00 h 0 W/m 27,0 km/h (4 Bft) 94,12 %
26.04.2018 02:00 8,9 C 8,3 C 7,2 C 76 % 0 lf 1012,2 hPa 0,0 l/m 0,00 h 0,00 h 0 W/m 24,7 km/h (4 Bft) 97,45 %
26.04.2018 03:00 9,1 C 8,8 C 7,9 C 80 % 0 lf 1012,2 hPa 0,0 l/m 0,00 h 0,00 h 0 W/m 31,4 km/h (5 Bft) 96,44 %
26.04.2018 04:00 9,0 C 8,5 C 7,7 C 82 % 0 lf 1012,3 hPa 0,0 l/m 0,00 h 0,00 h 0 W/m 26,5 km/h (4 Bft) 94,95 %
26.04.2018 05:00 8,8 C 8,3 C 7,4 C 84 % 0 lf 1012,3 hPa 0,0 l/m 0,00 h 0,00 h 0 W/m 25,5 km/h (4 Bft) 97,63 %
26.04.2018 06:00 8,6 C 8,3 C 7,3 C 85 % 0 lf 1012,8 hPa 0,0 l/m 0,23 h 0,00 h 24 W/m 27,2 km/h (4 Bft) 95,71 %
26.04.2018 07:00 8,8 C 8,7 C 7,1 C 85 % 9 lf 1013,4 hPa 0,0 l/m 0,07 h 0,33 h 40 W/m 30,8 km/h (5 Bft) 94,73 %
26.04.2018 08:00 9,3 C 9,9 C 8,6 C 85 % 5 lf 1014,2 hPa 0,0 l/m 0,07 h 0,23 h 106 W/m 25,5 km/h (4 Bft) 98,64 %
26.04.2018 09:00 10,4 C 13,6 C 10,9 C 80 % 0 lf 1014,8 hPa 0,0 l/m 0,47 h 0,00 h 309 W/m 27,7 km/h (4 Bft) 94,74 %
26.04.2018 10:00 11,3 C 14,9 C 13,8 C 73 % 0 lf 1015,1 hPa 0,0 l/m 0,50 h 0,07 h 397 W/m 34,8 km/h (5 Bft) 96,08 %
26.04.2018 11:00 12,3 C 16,1 C 14,9 C 69 % 0 lf 1015,4 hPa 0,0 l/m 0,63 h 0,00 h 511 W/m 31,9 km/h (5 Bft) 98,22 %
26.04.2018 12:00 13,4 C 17,7 C 16,8 C 64 % 0 lf 1015,5 hPa 0,0 l/m 0,73 h 0,00 h 558 W/m 37,8 km/h (5 Bft) 95,31 %
26.04.2018 13:00 14,3 C 19,1 C 16,4 C 61 % 0 lf 1015,5 hPa 0,0 l/m 0,73 h 0,00 h 668 W/m 36,1 km/h (5 Bft) 97,00 %
26.04.2018 14:00 14,7 C 17,4 C 14,7 C 59 % 4 lf 1015,5 hPa 0,0 l/m 0,53 h 0,27 h 517 W/m 33,1 km/h (5 Bft) 94,87 %
26.04.2018 15:00 12,5 C 14,8 C 13,3 C 69 % 9 lf 1016,0 hPa 0,0 l/m 0,53 h 0,27 h 438 W/m 27,2 km/h (4 Bft) 96,44 %
26.04.2018 16:00 14,3 C 17,0 C 17,2 C 62 % 0 lf 1015,6 hPa 0,0 l/m 0,90 h 0,00 h 610 W/m 30,3 km/h (5 Bft) 96,58 %
26.04.2018 17:00 14,9 C 15,8 C 15,0 C 55 % 0 lf 1015,4 hPa 0,0 l/m 0,73 h 0,00 h 409 W/m 26,9 km/h (4 Bft) 95,72 %
26.04.2018 18:00 13,8 C 13,1 C 11,8 C 60 % 1 lf 1015,5 hPa 0,0 l/m 0,23 h 0,13 h 115 W/m 22,2 km/h (4 Bft) 97,08 %
26.04.2018 19:00 12,1 C 12,1 C 11,3 C 68 % 0 lf 1015,6 hPa 0,0 l/m 0,27 h 0,00 h 81 W/m 11,7 km/h (2 Bft) 96,20 %
26.04.2018 20:00 11,9 C 11,1 C 10,2 C 70 % 0 lf 1015,8 hPa 0,0 l/m 0,43 h 0,00 h 29 W/m 8,0 km/h (2 Bft) 96,16 %
26.04.2018 21:00 11,1 C 9,8 C 8,0 C 72 % 0 lf 1016,1 hPa 0,0 l/m 0,00 h 0,00 h 0 W/m 6,8 km/h (2 Bft) 96,94 %
26.04.2018 22:00 9,9 C 7,9 C 6,0 C 78 % 0 lf 1016,0 hPa 0,0 l/m 0,00 h 0,00 h 0 W/m 6,9 km/h (2 Bft) 95,72 %
26.04.2018 23:00 8,5 C 7,2 C 5,5 C 83 % 0 lf 1015,9 hPa 0,0 l/m 0,00 h 0,00 h 0 W/m 7,6 km/h (2 Bft) 96,15 %
27.04.2018 00:00 7,8 C 6,9 C 5,1 C 84 % 0 lf 1015,9 hPa 0,0 l/m 0,00 h 0,00 h 0 W/m 7,3 km/h (2 Bft) 97,83 %
27.04.2018 01:00 7,5 C 6,9 C 5,5 C 84 % 0 lf 1015,8 hPa 0,0 l/m 0,00 h 0,00 h 0 W/m 10,4 km/h (2 Bft) 95,56 %
27.04.2018 02:00 7,2 C 6,4 C 4,9 C 82 % 0 lf 1015,4 hPa 0,0 l/m 0,00 h 0,00 h 0 W/m 9,6 km/h (2 Bft) 96,80 %
27.04.2018 03:00 6,8 C 5,9 C 4,4 C 81 % 0 lf 1015,0 hPa 0,0 l/m 0,00 h 0,00 h 0 W/m 8,6 km/h (2 Bft) 96,44 %
27.04.2018 04:00 6,5 C 6,0 C 4,5 C 81 % 0 lf 1014,7 hPa 0,0 l/m 0,00 h 0,00 h 0 W/m 7,9 km/h (2 Bft) 96,26 %
27.04.2018 05:00 6,1 C 5,0 C 3,5 C 82 % 0 lf 1014,3 hPa 0,0 l/m 0,00 h 0,00 h 0 W/m 7,2 km/h (2 Bft) 95,12 %
27.04.2018 06:00 5,2 C 4,8 C 3,7 C 86 % 0 lf 1013,7 hPa 0,0 l/m 0,50 h 0,00 h 27 W/m 9,9 km/h (2 Bft) 97,77 %
27.04.2018 07:00 5,4 C 5,9 C 4,9 C 88 % 0 lf 1013,4 hPa 0,0 l/m 1,00 h 0,00 h 120 W/m 11,6 km/h (2 Bft) 96,22 %
27.04.2018 08:00 7,0 C 9,4 C 7,0 C 86 % 0 lf 1013,1 hPa 0,0 l/m 1,00 h 0,00 h 293 W/m 14,6 km/h (3 Bft) 94,78 %
27.04.2018 09:00 10,1 C 14,0 C 11,6 C 76 % 0 lf 1012,6 hPa 0,0 l/m 1,00 h 0,00 h 333 W/m 15,3 km/h (3 Bft) 98,06 %
27.04.2018 10:00 12,7 C 16,7 C 16,7 C 69 % 0 lf 1012,3 hPa 0,0 l/m 1,00 h 0,00 h 484 W/m 19,3 km/h (3 Bft) 96,04 %
27.04.2018 11:00 13,9 C 17,1 C 17,4 C 67 % 0 lf 1011,7 hPa 0,0 l/m 1,00 h 0,00 h 485 W/m 21,9 km/h (4 Bft) 95,88 %
27.04.2018 12:00 15,4 C 19,1 C 19,2 C 60 % 0 lf 1010,7 hPa 0,0 l/m 1,00 h 0,00 h 553 W/m 21,0 km/h (4 Bft) 96,16 %
27.04.2018 13:00 16,8 C 20,5 C 19,8 C 52 % 0 lf 1009,7 hPa 0,0 l/m 1,00 h 0,00 h 654 W/m 25,3 km/h (4 Bft) 95,94 %
27.04.2018 14:00 17,5 C 20,5 C 19,8 C 48 % 0 lf 1008,4 hPa 0,0 l/m 0,97 h 0,00 h 582 W/m 26,6 km/h (4 Bft) 97,79 %
27.04.2018 15:00 17,9 C 21,7 C 24,3 C 47 % 0 lf 1007,8 hPa 0,0 l/m 1,00 h 0,00 h 714 W/m 21,5 km/h (4 Bft) 95,88 %
27.04.2018 16:00 18,7 C 20,3 C 22,0 C 47 % 0 lf 1006,8 hPa 0,0 l/m 0,97 h 0,00 h 593 W/m 24,6 km/h (4 Bft) 95,80 %
27.04.2018 17:00 19,2 C 19,2 C 18,6 C 45 % 0 lf 1006,0 hPa 0,0 l/m 0,87 h 0,00 h 417 W/m 23,0 km/h (4 Bft) 98,15 %
27.04.2018 18:00 19,2 C 18,9 C 18,1 C 44 % 0 lf 1005,7 hPa 0,0 l/m 0,20 h 0,00 h 169 W/m 19,3 km/h (3 Bft) 95,47 %
27.04.2018 19:00 18,8 C 18,2 C 16,3 C 48 % 0 lf 1005,4 hPa 0,0 l/m 0,27 h 0,00 h 89 W/m 15,0 km/h (3 Bft) 95,71 %
27.04.2018 20:00 17,9 C 16,0 C 13,4 C 52 % 0 lf 1005,5 hPa 0,0 l/m 0,00 h 0,00 h 15 W/m 4,1 km/h (1 Bft) 98,08 %
27.04.2018 21:00 16,3 C 14,7 C 12,2 C 58 % 0 lf 1005,5 hPa 0,0 l/m 0,00 h 0,03 h 0 W/m 1,9 km/h (1 Bft) 95,72 %
27.04.2018 22:00 15,2 C 13,3 C 11,3 C 64 % 0 lf 1005,7 hPa 0,0 l/m 0,00 h 0,00 h 0 W/m 1,5 km/h (1 Bft) 96,66 %
27.04.2018 23:00 13,6 C 11,5 C 9,6 C 70 % 0 lf 1005,9 hPa 0,0 l/m 0,00 h 0,00 h 0 W/m 2,9 km/h (1 Bft) 94,74 %
28.04.2018 00:00 12,3 C 11,9 C 9,8 C 75 % 0 lf 1006,1 hPa 0,0 l/m 0,00 h 0,00 h 0 W/m 9,0 km/h (2 Bft) 97,81 %
28.04.2018 01:00 13,2 C 13,6 C 11,7 C 68 % 0 lf 1006,3 hPa 0,0 l/m 0,00 h 0,00 h 0 W/m 17,5 km/h (3 Bft) 95,73 %
28.04.2018 02:00 14,1 C 13,4 C 12,0 C 67 % 0 lf 1006,8 hPa 0,0 l/m 0,00 h 0,00 h 0 W/m 16,9 km/h (3 Bft) 95,16 %
28.04.2018 03:00 13,5 C 12,8 C 11,2 C 70 % 0 lf 1007,1 hPa 0,0 l/m 0,00 h 0,00 h 0 W/m 15,8 km/h (3 Bft) 97,23 %
28.04.2018 04:00 12,9 C 12,2 C 10,8 C 70 % 0 lf 1007,6 hPa 0,0 l/m 0,00 h 0,00 h 0 W/m 13,4 km/h (3 Bft) 96,51 %
28.04.2018 05:00 12,7 C 12,2 C 11,1 C 71 % 0 lf 1007,7 hPa 0,0 l/m 0,00 h 0,00 h 0 W/m 15,0 km/h (3 Bft) 90,90 %
28.04.2018 06:00 12,6 C 12,2 C 10,9 C 70 % 0 lf 1008,0 hPa 0,0 l/m 0,00 h 0,00 h 14 W/m 16,6 km/h (3 Bft) 97,72 %
28.04.2018 07:00 12,6 C 12,8 C 11,8 C 70 % 0 lf 1008,5 hPa 0,0 l/m 0,03 h 0,00 h 70 W/m 20,6 km/h (4 Bft) 94,37 %
28.04.2018 08:00 13,0 C 13,6 C 12,9 C 70 % 0 lf 1009,0 hPa 0,0 l/m 0,00 h 0,00 h 141 W/m 23,0 km/h (4 Bft) 98,15 %
28.04.2018 09:00 13,5 C 15,1 C 14,1 C 70 % 0 lf 1009,3 hPa 0,0 l/m 0,37 h 0,00 h 228 W/m 23,8 km/h (4 Bft) 95,95 %
28.04.2018 10:00 14,6 C 18,0 C 16,9 C 68 % 0 lf 1009,6 hPa 0,0 l/m 1,00 h 0,00 h 445 W/m 29,3 km/h (5 Bft) 95,40 %
28.04.2018 11:00 15,7 C 19,3 C 18,4 C 66 % 0 lf 1009,9 hPa 0,0 l/m 1,00 h 0,00 h 488 W/m 28,4 km/h (4 Bft) 97,57 %
28.04.2018 12:00 15,7 C 18,4 C 18,6 C 65 % 0 lf 1010,1 hPa 0,0 l/m 1,00 h 0,00 h 461 W/m 27,1 km/h (4 Bft) 95,79 %
28.04.2018 13:00 16,7 C 20,8 C 19,1 C 62 % 0 lf 1010,0 hPa 0,0 l/m 0,67 h 0,00 h 554 W/m 24,0 km/h (4 Bft) 97,02 %
28.04.2018 14:00 18,0 C 21,2 C 20,3 C 57 % 0 lf 1009,8 hPa 0,0 l/m 0,70 h 0,00 h 508 W/m 23,2 km/h (4 Bft) 96,58 %
28.04.2018 15:00 17,7 C 19,9 C 20,0 C 58 % 0 lf 1009,8 hPa 0,0 l/m 0,47 h 0,00 h 384 W/m 19,0 km/h (3 Bft) 95,45 %
28.04.2018 16:00 17,6 C 19,1 C 19,0 C 57 % 0 lf 1009,5 hPa 0,0 l/m 0,40 h 0,00 h 304 W/m 19,5 km/h (3 Bft) 97,52 %
28.04.2018 17:00 17,5 C 18,5 C 18,2 C 56 % 0 lf 1009,4 hPa 0,0 l/m 0,50 h 0,00 h 237 W/m 16,0 km/h (3 Bft) 95,65 %
28.04.2018 18:00 16,9 C 16,7 C 16,1 C 57 % 0 lf 1009,4 hPa 0,0 l/m 0,00 h 0,00 h 80 W/m 10,7 km/h (2 Bft) 95,15 %
28.04.2018 19:00 16,5 C 15,9 C 15,1 C 60 % 0 lf 1009,1 hPa 0,0 l/m 0,00 h 0,00 h 37 W/m 5,8 km/h (2 Bft) 98,86 %
28.04.2018 20:00 15,9 C 15,0 C 13,6 C 60 % 0 lf 1009,4 hPa 0,0 l/m 0,00 h 0,00 h 9 W/m 5,9 km/h (2 Bft) 94,16 %
28.04.2018 21:00 15,2 C 14,4 C 13,2 C 59 % 0 lf 1009,8 hPa 0,0 l/m 0,00 h 0,00 h 0 W/m 9,0 km/h (2 Bft) 97,58 %
28.04.2018 22:00 14,8 C 13,9 C 12,7 C 62 % 0 lf 1010,3 hPa 0,0 l/m 0,00 h 0,00 h 0 W/m 9,7 km/h (2 Bft) 96,58 %
28.04.2018 23:00 13,9 C 12,6 C 11,3 C 66 % 0 lf 1010,4 hPa 0,0 l/m 0,00 h 0,00 h 0 W/m 8,8 km/h (2 Bft) 95,94 %
29.04.2018 00:00 12,5 C 10,4 C 8,6 C 70 % 0 lf 1010,3 hPa 0,0 l/m 0,00 h 0,00 h 0 W/m 5,7 km/h (1 Bft) 96,78 %
29.04.2018 01:00 11,1 C 9,0 C 7,2 C 75 % 0 lf 1010,3 hPa 0,0 l/m 0,00 h 0,00 h 0 W/m 2,9 km/h (1 Bft) 95,94 %
29.04.2018 02:00 9,6 C 7,8 C 6,3 C 79 % 0 lf 1009,9 hPa 0,0 l/m 0,00 h 0,00 h 0 W/m 1,1 km/h (1 Bft) 95,72 %
29.04.2018 03:00 8,6 C 7,1 C 5,6 C 82 % 1 lf 1009,5 hPa 0,0 l/m 0,00 h 0,00 h 0 W/m 0,5 km/h (0 Bft) 98,08 %
29.04.2018 04:00 7,8 C 6,3 C 5,0 C 86 % 2 lf 1009,1 hPa 0,0 l/m 0,00 h 0,00 h 0 W/m 0,8 km/h (0 Bft) 94,62 %
29.04.2018 05:00 7,0 C 5,6 C 4,4 C 87 % 3 lf 1008,6 hPa 0,0 l/m 0,00 h 0,00 h 0 W/m 0,9 km/h (0 Bft) 97,82 %
29.04.2018 06:00 6,7 C 6,7 C 5,6 C 90 % 3 lf 1008,4 hPa 0,0 l/m 0,47 h 0,00 h 31 W/m 1,0 km/h (0 Bft) 95,22 %
29.04.2018 07:00 7,3 C 8,2 C 7,3 C 92 % 0 lf 1008,5 hPa 0,0 l/m 0,03 h 0,00 h 63 W/m 4,8 km/h (1 Bft) 96,16 %
29.04.2018 08:00 8,7 C 9,3 C 8,9 C 93 % 4 lf 1008,0 hPa 0,2 l/m 0,00 h 0,43 h 53 W/m 6,3 km/h (2 Bft) 97,87 %
29.04.2018 09:00 9,7 C 9,9 C 9,1 C 93 % 15 lf 1007,9 hPa 0,2 l/m 0,00 h 0,37 h 113 W/m 6,0 km/h (2 Bft) 95,58 %
29.04.2018 10:00 10,3 C 10,3 C 9,5 C 94 % 15 lf 1007,9 hPa 0,0 l/m 0,00 h 0,17 h 94 W/m 8,9 km/h (2 Bft) 97,05 %
29.04.2018 11:00 12,1 C 16,1 C 13,8 C 94 % 4 lf 1007,1 hPa 0,2 l/m 0,55 h 0,00 h 412 W/m 14,5 km/h (3 Bft) 93,16 %
29.04.2018 12:00 14,6 C 18,2 C 16,0 C 83 % 0 lf 1006,2 hPa 0,0 l/m 0,40 h 0,00 h 424 W/m 18,2 km/h (3 Bft) 96,47 %
29.04.2018 13:00 16,4 C 17,4 C 16,9 C 76 % 1 lf 1005,5 hPa 0,0 l/m 0,23 h 0,10 h 269 W/m 16,0 km/h (3 Bft) 96,76 %
29.04.2018 14:00 17,7 C 22,3 C 19,7 C 77 % 0 lf 1004,3 hPa 0,0 l/m 0,83 h 0,03 h 561 W/m 20,0 km/h (4 Bft) 96,50 %
29.04.2018 15:00 20,6 C 25,2 C 26,7 C 70 % 0 lf 1003,1 hPa 0,0 l/m 1,00 h 0,00 h 745 W/m 22,0 km/h (4 Bft) 95,70 %
29.04.2018 16:00 21,5 C 22,2 C 22,5 C 67 % 0 lf 1002,3 hPa 0,0 l/m 0,20 h 0,00 h 244 W/m 19,1 km/h (3 Bft) 97,16 %
29.04.2018 17:00 21,4 C 21,7 C 21,5 C 68 % 0 lf 1001,8 hPa 0,0 l/m 0,07 h 0,00 h 193 W/m 15,2 km/h (3 Bft) 96,08 %
29.04.2018 18:00 21,5 C 21,8 C 21,5 C 64 % 0 lf 1001,0 hPa 0,0 l/m 0,57 h 0,00 h 191 W/m 14,8 km/h (3 Bft) 97,17 %
29.04.2018 19:00 20,9 C 20,0 C 18,8 C 63 % 0 lf 1000,5 hPa 0,0 l/m 0,00 h 0,03 h 51 W/m 9,2 km/h (2 Bft) 94,80 %
29.04.2018 20:00 19,5 C 17,3 C 15,2 C 70 % 0 lf 1000,0 hPa 0,0 l/m 0,00 h 0,00 h 14 W/m 6,8 km/h (2 Bft) 96,94 %
29.04.2018 21:00 17,9 C 16,7 C 15,2 C 75 % 0 lf 999,7 hPa 0,0 l/m 0,00 h 0,00 h 0 W/m 8,6 km/h (2 Bft) 96,15 %
29.04.2018 22:00 17,4 C 16,5 C 15,1 C 78 % 0 lf 998,5 hPa 0,0 l/m 0,00 h 0,00 h 0 W/m 13,5 km/h (3 Bft) 96,73 %
29.04.2018 23:00 15,7 C 14,6 C 13,7 C 85 % 4 lf 996,9 hPa 0,0 l/m 0,00 h 0,20 h 0 W/m 39,4 km/h (6 Bft) 96,23 %
Min-Datum _ 27.04.18 27.04.18 27.04.18 27.04.18 23.04.18 29.04.18 - - - - 23.04.18 23.04.18
_ Min-Zeit 06:30 05:40 05:18 18:08 00:00 23:54 - - - - 00:00 00:04
Minimum _ 5,1 C 4,4 C 3,3 C 42 % 0 lf 995,7 hPa - - - - 0,0 km/h (0 Bft) 4,76 %
Max-Datum _ 29.04.18 23.04.18 29.04.18 29.04.18 23.04.18 24.04.18 23.04.18 29.04.18 26.04.18 28.04.18 26.04.18 23.04.18
_ Max-Zeit 16:08 13:20 15:42 11:20 01:28 10:52 01:54 11:51 08:38 13:44 12:38 00:24
Maximum _ 21,8 C 28,9 C 28,9 C 96 % 15 lf 1016,6 hPa 0,8 l/m 0,08 h 0,07 h 1092 W/m 51,8 km/h
W-SW (7 Bft)
100,00 %
Durchschnitt _ 13,7 C 14,4 C 13,1 C 73 % 1 lf 1011,0 hPa #2,2 l/m #47:46 h #5:26 h 292 W/m 17,4 km/h (3 Bft) 96,27 %
© 2018 W. Hausmann